Time;durP1;ratioP1;P1;durP2;ratioP2;P2;SDS_P1;SDS_P2;PMS_P1;PMS_P2;Temp;Humidity;BMP_temperature;BMP_pressure;BME280_temperature;BME280_humidity;BME280_pressure;Samples;Min_cycle;Max_cycle;Signal;HPM_P1;HPM_P2
2024/03/08 00:01:48;;;;;;;4.70;4.25;;;;;;;1.36;100.00;97964.19;1224320;75;2926817;-64
2024/03/08 00:04:24;;;;;;;5.25;4.75;;;;;;;1.33;100.00;97964.25;1225583;75;2918764;-65
2024/03/08 00:06:57;;;;;;;5.70;4.80;;;;;;;1.36;100.00;97963.44;1224930;75;2922991;-65
2024/03/08 00:09:30;;;;;;;4.40;3.95;;;;;;;1.34;100.00;97961.13;1224344;75;2916663;-64
2024/03/08 00:12:03;;;;;;;5.85;4.75;;;;;;;1.35;100.00;97959.19;1225122;75;2923370;-62
2024/03/08 00:14:37;;;;;;;4.70;4.20;;;;;;;1.30;100.00;97956.94;1224469;75;2928646;-63
2024/03/08 00:17:10;;;;;;;5.35;4.55;;;;;;;1.22;100.00;97957.03;1224342;75;2921579;-66
2024/03/08 00:19:45;;;;;;;5.05;4.55;;;;;;;1.19;100.00;97952.47;1224906;75;2911995;-65
2024/03/08 00:22:18;;;;;;;5.20;4.40;;;;;;;1.22;100.00;97958.97;1221379;75;2915076;-63
2024/03/08 00:24:52;;;;;;;5.35;4.25;;;;;;;1.26;100.00;97957.00;1223520;75;2916246;-63
2024/03/08 00:27:25;;;;;;;4.40;4.00;;;;;;;1.29;100.00;97953.50;1223988;75;2931899;-65
2024/03/08 00:29:57;;;;;;;4.30;3.90;;;;;;;1.29;100.00;97956.19;1224994;75;2922977;-62
2024/03/08 00:32:31;;;;;;;5.80;4.65;;;;;;;1.30;100.00;97954.25;1224189;75;2926356;-62
2024/03/08 00:35:07;;;;;;;4.35;3.95;;;;;;;1.27;100.00;97953.91;1224137;75;2922013;-63
2024/03/08 00:37:41;;;;;;;4.35;3.85;;;;;;;1.34;100.00;97950.34;1224356;75;2925530;-61
2024/03/08 00:40:15;;;;;;;4.60;4.10;;;;;;;1.36;100.00;97950.69;1224137;75;2923031;-63
2024/03/08 00:42:48;;;;;;;5.55;4.80;;;;;;;1.35;100.00;97953.78;1224601;75;2927774;-65
2024/03/08 00:45:22;;;;;;;6.00;4.65;;;;;;;1.35;100.00;97949.19;1224876;75;2918981;-65
2024/03/08 00:47:54;;;;;;;4.65;4.15;;;;;;;1.40;100.00;97947.97;1223177;75;2919662;-64
2024/03/08 00:50:30;;;;;;;4.40;3.85;;;;;;;1.37;100.00;97940.66;1224234;75;2923651;-64
2024/03/08 00:53:04;;;;;;;5.20;4.15;;;;;;;1.38;100.00;97945.66;1224293;75;2915743;-62
2024/03/08 00:55:37;;;;;;;6.10;5.05;;;;;;;1.27;100.00;97939.66;1223959;75;2936338;-65
2024/03/08 00:58:11;;;;;;;6.55;5.40;;;;;;;1.27;100.00;97945.81;1224363;75;2921566;-65
2024/03/08 01:00:44;;;;;;;5.85;4.65;;;;;;;1.34;100.00;97930.69;1224107;75;2927230;-63
2024/03/08 01:03:17;;;;;;;5.20;4.50;;;;;;;1.36;100.00;97929.13;1224096;75;2921266;-64
2024/03/08 01:05:52;;;;;;;5.50;4.90;;;;;;;1.33;100.00;97929.94;1220409;75;3094834;-65
2024/03/08 01:08:25;;;;;;;6.35;4.25;;;;;;;1.40;100.00;97921.75;1223768;75;2929199;-63
2024/03/08 01:10:59;;;;;;;6.65;5.05;;;;;;;1.27;100.00;97934.25;1224172;75;2924406;-63
2024/03/08 01:13:32;;;;;;;5.40;4.65;;;;;;;1.28;100.00;97925.00;1224986;75;2925407;-64
2024/03/08 01:16:05;;;;;;;5.65;4.75;;;;;;;1.24;100.00;97922.34;1223439;75;2936722;-64
2024/03/08 01:18:37;;;;;;;6.00;5.10;;;;;;;1.27;100.00;97926.94;1224173;75;2918797;-64
2024/03/08 01:21:13;;;;;;;4.45;3.90;;;;;;;1.26;100.00;97922.72;1224724;75;2923487;-63
2024/03/08 01:23:46;;;;;;;4.80;4.30;;;;;;;1.27;100.00;97920.78;1224178;75;2918985;-66
2024/03/08 01:26:18;;;;;;;4.80;3.90;;;;;;;1.34;100.00;97919.91;1224799;75;2925536;-65
2024/03/08 01:28:53;;;;;;;4.30;3.75;;;;;;;1.30;100.00;97916.50;1219716;75;3189847;-64
2024/03/08 01:31:25;;;;;;;7.15;5.50;;;;;;;1.06;100.00;97919.16;1224150;67;2925791;-63
2024/03/08 01:33:58;;;;;;;5.60;4.80;;;;;;;1.23;100.00;97923.53;1224284;75;2914212;-61
2024/03/08 01:36:34;;;;;;;5.30;4.80;;;;;;;1.04;100.00;97919.53;1224785;75;2915957;-64
2024/03/08 01:39:08;;;;;;;7.65;6.35;;;;;;;0.85;100.00;97918.22;1224810;75;2921500;-63
2024/03/08 01:41:40;;;;;;;8.15;7.25;;;;;;;0.77;100.00;97913.31;1224724;75;2933367;-63
2024/03/08 01:44:17;;;;;;;6.95;6.20;;;;;;;0.99;100.00;97920.00;1224637;75;2914432;-65
2024/03/08 01:46:52;;;;;;;5.85;5.25;;;;;;;1.02;100.00;97908.38;1224831;75;2913690;-62
2024/03/08 01:49:27;;;;;;;5.75;4.70;;;;;;;0.97;100.00;97913.47;1222390;75;2944670;-63
2024/03/08 01:52:03;;;;;;;6.35;4.50;;;;;;;1.02;100.00;97911.09;1224551;75;2919742;-64
2024/03/08 01:54:37;;;;;;;4.60;4.05;;;;;;;1.04;100.00;97908.75;1223880;75;2926464;-63
2024/03/08 01:57:11;;;;;;;4.70;4.20;;;;;;;0.98;100.00;97913.06;1224656;75;2925941;-64
2024/03/08 01:59:44;;;;;;;4.75;4.10;;;;;;;0.98;100.00;97904.22;1224228;75;2916871;-63
2024/03/08 02:02:21;;;;;;;4.30;3.85;;;;;;;0.94;100.00;97911.56;1223719;75;2923316;-64
2024/03/08 02:04:54;;;;;;;4.70;4.20;;;;;;;0.96;100.00;97911.94;1223733;75;2951011;-60
2024/03/08 02:07:30;;;;;;;4.75;3.95;;;;;;;0.84;100.00;97913.22;1224145;75;2925096;-62
2024/03/08 02:10:03;;;;;;;4.40;4.00;;;;;;;0.92;100.00;97914.69;1224871;75;2922124;-63
2024/03/08 02:12:36;;;;;;;4.65;3.75;;;;;;;1.01;100.00;97911.47;1223974;75;2928092;-63
2024/03/08 02:15:10;;;;;;;4.40;4.00;;;;;;;1.04;100.00;97913.38;1223859;75;2915909;-63
2024/03/08 02:17:43;;;;;;;4.10;3.70;;;;;;;1.06;100.00;97913.75;1224406;75;2923796;-65
2024/03/08 02:20:16;;;;;;;4.10;3.20;;;;;;;1.05;100.00;97912.22;1223466;75;2922474;-67
2024/03/08 02:22:51;;;;;;;5.60;4.15;;;;;;;0.89;100.00;97906.63;1224481;75;2917072;-67
2024/03/08 02:25:24;;;;;;;8.20;6.05;;;;;;;0.90;100.00;97910.88;1223316;75;2922998;-66
2024/03/08 02:27:57;;;;;;;6.35;5.25;;;;;;;1.00;100.00;97912.66;1223807;75;2926863;-64
2024/03/08 02:30:30;;;;;;;5.15;4.65;;;;;;;1.03;100.00;97906.44;1224106;75;2926355;-63
2024/03/08 02:33:03;;;;;;;6.85;5.65;;;;;;;0.99;100.00;97908.44;1223875;75;2917488;-65
2024/03/08 02:35:36;;;;;;;5.25;4.60;;;;;;;1.01;100.00;97916.88;1223826;75;2928278;-64
2024/03/08 02:38:12;;;;;;;6.85;5.30;;;;;;;0.95;100.00;97910.41;1224189;75;2921094;-64
2024/03/08 02:40:45;;;;;;;5.95;4.75;;;;;;;1.01;100.00;97914.19;1223781;75;2925978;-64
2024/03/08 02:43:19;;;;;;;6.55;5.65;;;;;;;1.12;100.00;97911.34;1224034;75;2920625;-63
2024/03/08 02:45:52;;;;;;;5.95;5.35;;;;;;;1.08;100.00;97903.31;1224739;75;2923088;-65
2024/03/08 02:48:25;;;;;;;5.55;4.30;;;;;;;1.14;100.00;97904.38;1223222;75;2921630;-66
2024/03/08 02:50:58;;;;;;;4.85;3.95;;;;;;;1.20;100.00;97913.56;1222995;75;2928425;-65
2024/03/08 02:53:35;;;;;;;5.60;4.20;;;;;;;1.28;100.00;97908.81;1224564;75;2919395;-65
2024/03/08 02:56:08;;;;;;;4.35;3.95;;;;;;;1.18;100.00;97909.72;1224258;75;2889857;-64
2024/03/08 02:58:41;;;;;;;5.45;4.65;;;;;;;1.24;100.00;97908.09;1224560;67;2921081;-63
2024/03/08 03:01:14;;;;;;;5.60;5.00;;;;;;;1.38;100.00;97915.25;1223888;75;2919396;-62
2024/03/08 03:03:47;;;;;;;4.25;3.85;;;;;;;1.38;100.00;97913.28;1224097;75;2911766;-65
2024/03/08 03:06:21;;;;;;;7.65;5.90;;;;;;;1.12;100.00;97906.72;1224397;75;2916196;-64
2024/03/08 03:08:57;;;;;;;7.35;6.05;;;;;;;1.28;100.00;97904.19;1224287;75;2924592;-63
2024/03/08 03:11:30;;;;;;;7.00;5.70;;;;;;;1.44;100.00;97908.97;1224892;75;2919884;-63
2024/03/08 03:14:02;;;;;;;5.20;4.70;;;;;;;1.42;100.00;97905.94;1224409;75;2922012;-67
2024/03/08 03:16:35;;;;;;;5.55;4.60;;;;;;;1.46;100.00;97908.56;1223796;75;2931511;-65
2024/03/08 03:19:09;;;;;;;8.45;7.35;;;;;;;1.11;100.00;97899.03;1224245;75;2922342;-65
2024/03/08 03:21:43;;;;;;;8.60;7.70;;;;;;;1.37;100.00;97897.50;1225081;75;2916337;-65
2024/03/08 03:24:18;;;;;;;6.95;6.10;;;;;;;1.48;100.00;97892.72;1224330;75;2927131;-65
2024/03/08 03:26:51;;;;;;;5.95;5.35;;;;;;;1.54;100.00;97899.19;1224669;75;2916812;-64
2024/03/08 03:29:25;;;;;;;5.10;4.55;;;;;;;1.58;100.00;97899.13;1223481;75;2922668;-67
2024/03/08 03:31:58;;;;;;;5.80;4.45;;;;;;;1.58;100.00;97899.13;1223522;75;2922918;-65
2024/03/08 03:34:30;;;;;;;5.75;4.50;;;;;;;1.57;100.00;97898.38;1223949;75;2914821;-64
2024/03/08 03:37:03;;;;;;;5.10;4.50;;;;;;;1.62;100.00;97897.91;1224806;75;2922979;-63
2024/03/08 03:39:48;;;;;;;5.10;4.10;;;;;;;1.59;100.00;97896.03;1223788;75;2925969;-64
2024/03/08 03:42:22;;;;;;;5.50;4.20;;;;;;;1.68;100.00;97895.50;1224306;75;2933096;-65
2024/03/08 03:44:54;;;;;;;4.90;4.40;;;;;;;1.61;100.00;97893.69;1223847;75;2927387;-66
2024/03/08 03:47:27;;;;;;;5.00;4.50;;;;;;;1.66;100.00;97895.94;1224206;75;2928137;-63
2024/03/08 03:50:01;;;;;;;5.20;4.70;;;;;;;1.63;100.00;97893.28;1223453;75;2915625;-62
2024/03/08 03:52:34;;;;;;;4.65;3.90;;;;;;;1.69;100.00;97895.09;1219686;75;3115438;-62
2024/03/08 03:55:11;;;;;;;4.95;4.45;;;;;;;1.69;100.00;97897.03;1222685;75;2921662;-65
2024/03/08 03:57:45;;;;;;;4.55;4.15;;;;;;;1.72;100.00;97888.13;1223610;75;2918065;-63
2024/03/08 04:00:19;;;;;;;4.40;3.95;;;;;;;1.72;100.00;97896.22;1223983;75;2918221;-64
2024/03/08 04:02:52;;;;;;;4.15;3.75;;;;;;;1.74;100.00;97893.13;1223765;75;2920043;-64
2024/03/08 04:05:24;;;;;;;4.65;4.05;;;;;;;1.65;100.00;97896.31;1223455;75;2933485;-66
2024/03/08 04:07:57;;;;;;;4.25;3.85;;;;;;;1.65;100.00;97899.03;1223692;75;2920130;-67
2024/03/08 04:10:33;;;;;;;3.95;3.30;;;;;;;1.63;100.00;97898.66;1223913;75;2924946;-64
2024/03/08 04:13:06;;;;;;;5.35;4.10;;;;;;;1.59;100.00;97900.66;1222936;75;2936064;-65
2024/03/08 04:15:40;;;;;;;6.70;4.50;;;;;;;1.56;100.00;97899.53;1223593;75;2921478;-66
2024/03/08 04:18:13;;;;;;;6.70;6.00;;;;;;;1.52;100.00;97906.94;1224159;75;2923494;-66
2024/03/08 04:20:46;;;;;;;6.25;5.20;;;;;;;1.63;100.00;97894.03;1223301;75;2923160;-62
2024/03/08 04:23:19;;;;;;;5.35;4.70;;;;;;;1.68;100.00;97898.19;1222980;75;2926657;-64
2024/03/08 04:25:54;;;;;;;5.35;4.85;;;;;;;1.69;100.00;97900.50;1223668;75;2922006;-65
2024/03/08 04:28:27;;;;;;;5.05;4.55;;;;;;;1.82;100.00;97902.59;1223380;75;2926727;-63
2024/03/08 04:31:00;;;;;;;5.25;4.45;;;;;;;1.82;100.00;97905.31;1223626;75;2928588;-63
2024/03/08 04:33:35;;;;;;;5.10;4.55;;;;;;;1.83;100.00;97901.44;1222663;75;2925196;-64
2024/03/08 04:36:13;;;;;;;6.25;5.35;;;;;;;1.88;100.00;97909.84;1223488;75;2936745;-64
2024/03/08 04:38:46;;;;;;;4.30;3.40;;;;;;;1.85;100.00;97909.88;1223309;75;2930138;-63
2024/03/08 04:41:22;;;;;;;6.40;5.10;;;;;;;1.87;100.00;97905.59;1223859;75;2923144;-63
2024/03/08 04:43:56;;;;;;;11.05;9.00;;;;;;;1.45;100.00;97907.03;1222046;75;2933295;-63
2024/03/08 04:46:29;;;;;;;13.90;11.50;;;;;;;1.50;100.00;97906.56;1223240;75;2921817;-66
2024/03/08 04:49:02;;;;;;;12.35;10.35;;;;;;;1.50;100.00;97909.28;1223905;75;2938748;-63
2024/03/08 04:51:35;;;;;;;11.30;9.60;;;;;;;1.56;100.00;97899.53;1222590;75;2924862;-65
2024/03/08 04:54:08;;;;;;;9.85;8.85;;;;;;;1.79;100.00;97906.91;1223662;75;2924966;-64
2024/03/08 04:56:45;;;;;;;8.55;7.10;;;;;;;1.82;100.00;97908.75;1223795;75;2915608;-66
2024/03/08 04:59:19;;;;;;;7.65;6.85;;;;;;;1.87;100.00;97907.53;1223433;75;2915643;-64
2024/03/08 05:01:51;;;;;;;7.55;6.75;;;;;;;1.95;100.00;97908.19;1224099;75;2919095;-65
2024/03/08 05:04:24;;;;;;;8.60;7.25;;;;;;;1.99;100.00;97900.78;1223688;75;2922770;-63
2024/03/08 05:06:57;;;;;;;7.35;5.60;;;;;;;2.04;100.00;97909.16;1223687;75;2939519;-64
2024/03/08 05:09:31;;;;;;;8.50;7.50;;;;;;;1.80;100.00;97905.72;1223509;75;2938150;-64
2024/03/08 05:12:07;;;;;;;13.00;10.95;;;;;;;1.59;100.00;97908.75;1222332;75;2917872;-67
2024/03/08 05:14:40;;;;;;;14.90;12.90;;;;;;;1.49;100.00;97905.81;1223233;75;2919969;-65
2024/03/08 05:17:13;;;;;;;15.00;12.55;;;;;;;1.51;100.00;97907.34;1223871;75;2928740;-64
2024/03/08 05:19:46;;;;;;;13.30;11.90;;;;;;;1.55;100.00;97902.66;1223055;75;2923943;-63
2024/03/08 05:22:19;;;;;;;11.15;9.90;;;;;;;1.73;100.00;97905.81;1223932;75;2930348;-63
2024/03/08 05:24:52;;;;;;;12.65;11.25;;;;;;;1.54;100.00;97909.22;1224581;75;2930806;-64
2024/03/08 05:27:28;;;;;;;13.35;11.65;;;;;;;1.53;100.00;97905.75;1223719;75;2927624;-65
2024/03/08 05:30:01;;;;;;;12.00;10.55;;;;;;;1.72;100.00;97907.00;1223942;75;2929536;-63
2024/03/08 05:32:33;;;;;;;9.60;8.40;;;;;;;1.95;100.00;97902.78;1223389;75;2924354;-65
2024/03/08 05:35:07;;;;;;;8.15;7.35;;;;;;;1.94;100.00;97901.25;1222705;75;2936946;-64
2024/03/08 05:37:40;;;;;;;6.65;5.95;;;;;;;1.97;100.00;97903.88;1223295;75;2933084;-66
2024/03/08 05:40:14;;;;;;;6.70;6.00;;;;;;;1.96;100.00;97913.19;1223624;75;2923985;-64
2024/03/08 05:42:49;;;;;;;6.05;5.45;;;;;;;1.97;100.00;97913.94;1222696;75;2934533;-62
2024/03/08 05:45:22;;;;;;;6.95;6.00;;;;;;;1.84;100.00;97911.81;1223643;75;2924879;-62
2024/03/08 05:47:56;;;;;;;6.65;5.80;;;;;;;1.73;100.00;97913.91;1222824;75;2932990;-63
2024/03/08 05:50:29;;;;;;;7.70;6.30;;;;;;;1.72;100.00;97915.09;1223634;75;2920299;-65
2024/03/08 05:53:02;;;;;;;7.30;5.70;;;;;;;1.81;100.00;97917.28;1223360;75;2926220;-65
2024/03/08 05:55:35;;;;;;;6.05;5.45;;;;;;;1.60;100.00;97911.03;1222298;75;2923445;-64
2024/03/08 05:58:11;;;;;;;6.85;5.40;;;;;;;1.64;100.00;97908.31;1222875;75;2928430;-64
2024/03/08 06:00:46;;;;;;;5.35;4.50;;;;;;;1.72;100.00;97911.66;1222622;75;2924101;-65
2024/03/08 06:03:21;;;;;;;5.85;5.25;;;;;;;1.67;100.00;97912.88;1222970;75;2920161;-64
2024/03/08 06:05:54;;;;;;;8.65;5.45;;;;;;;1.51;100.00;97908.09;1221616;75;2931728;-63
2024/03/08 06:08:29;;;;;;;12.75;10.45;;;;;;;1.47;100.00;97910.84;1222155;75;2938425;-65
2024/03/08 06:11:02;;;;;;;10.20;8.95;;;;;;;1.63;100.00;97918.31;1223690;75;2924725;-62
2024/03/08 06:13:38;;;;;;;7.40;6.70;;;;;;;1.68;100.00;97919.78;1222588;83;2925116;-63
2024/03/08 06:16:11;;;;;;;7.40;6.60;;;;;;;1.74;100.00;97918.16;1222723;75;2923330;-63
2024/03/08 06:18:44;;;;;;;6.05;5.45;;;;;;;1.72;100.00;97919.75;1222875;75;2935405;-64
2024/03/08 06:21:17;;;;;;;7.10;6.10;;;;;;;1.76;100.00;97917.75;1223112;75;2921787;-63
2024/03/08 06:23:50;;;;;;;7.35;6.20;;;;;;;1.75;100.00;97925.06;1222652;75;2933667;-64
2024/03/08 06:26:22;;;;;;;7.40;6.30;;;;;;;1.82;100.00;97927.66;1223717;75;2925587;-63
2024/03/08 06:28:58;;;;;;;9.75;7.50;;;;;;;1.73;100.00;97918.56;1222377;75;2931478;-66
2024/03/08 06:31:31;;;;;;;13.35;11.30;;;;;;;1.74;100.00;97930.91;1222954;75;2931990;-65
2024/03/08 06:34:07;;;;;;;16.70;13.70;;;;;;;1.85;100.00;97926.06;1222197;75;2941398;-65
2024/03/08 06:36:40;;;;;;;17.35;15.30;;;;;;;1.75;100.00;97927.00;1223188;75;2927601;-64
2024/03/08 06:39:13;;;;;;;18.85;16.15;;;;;;;1.75;100.00;97935.88;1218038;75;3202359;-64
2024/03/08 06:41:46;;;;;;;17.35;15.30;;;;;;;1.84;100.00;97935.34;1221956;75;2933988;-64
2024/03/08 06:44:22;;;;;;;18.30;16.05;;;;;;;1.79;100.00;97933.88;1219991;75;3159858;-64
2024/03/08 06:46:54;;;;;;;14.90;13.35;;;;;;;2.19;100.00;97938.63;1222772;75;2926459;-64
2024/03/08 06:49:27;;;;;;;17.15;14.00;;;;;;;2.03;100.00;97936.59;1223471;75;2934584;-63
2024/03/08 06:52:00;;;;;;;18.95;16.40;;;;;;;2.20;100.00;97940.94;1222489;75;2928983;-64
2024/03/08 06:54:33;;;;;;;19.25;17.10;;;;;;;2.09;100.00;97937.63;1223804;75;2924771;-64
2024/03/08 06:57:06;;;;;;;23.40;18.90;;;;;;;1.90;100.00;97937.19;1223015;75;2940376;-65
2024/03/08 06:59:41;;;;;;;20.70;17.95;;;;;;;2.09;100.00;97943.03;1223059;75;2921558;-65
2024/03/08 07:02:14;;;;;;;20.00;17.15;;;;;;;2.18;100.00;97945.22;1223043;75;2930386;-66
2024/03/08 07:04:50;;;;;;;20.85;17.30;;;;;;;2.24;100.00;97938.19;1221885;83;2926956;-64
2024/03/08 07:07:23;;;;;;;17.35;15.50;;;;;;;2.54;100.00;97943.41;1223104;75;2925767;-65
2024/03/08 07:09:56;;;;;;;19.25;16.40;;;;;;;2.33;100.00;97935.69;1222947;75;2931231;-64
2024/03/08 07:12:29;;;;;;;21.25;17.55;;;;;;;2.22;100.00;97946.69;1221382;75;2931682;-64
2024/03/08 07:15:05;;;;;;;21.80;18.55;;;;;;;1.83;100.00;97939.25;1223177;75;2927067;-65
2024/03/08 07:17:39;;;;;;;23.20;17.90;;;;;;;1.81;100.00;97944.28;1214873;75;2962838;-62
2024/03/08 07:20:18;;;;;;;19.20;17.00;;;;;;;1.68;100.00;97942.16;1159337;75;5734424;-66
2024/03/08 07:22:52;;;;;;;20.70;16.35;;;;;;;1.84;100.00;97944.22;1157761;75;5974480;-63
2024/03/08 07:25:29;;;;;;;21.55;17.35;;;;;;;1.68;100.00;97947.56;1206815;75;3569946;-65
2024/03/08 07:28:01;;;;;;;18.85;16.15;;;;;;;1.70;100.00;97947.88;1188559;75;5559992;-64
2024/03/08 07:33:22;;;;;;;21.50;17.75;;;;;;;1.81;100.00;97952.38;1222502;75;2927956;-63
2024/03/08 07:35:56;;;;;;;18.60;16.55;;;;;;;1.67;100.00;97948.72;1221955;75;2940112;-63
2024/03/08 07:38:29;;;;;;;20.90;17.35;;;;;;;1.77;100.00;97949.72;1222227;75;2925797;-61
2024/03/08 07:41:02;;;;;;;20.60;17.65;;;;;;;1.70;100.00;97955.22;1221086;75;3034105;-65
2024/03/08 07:43:35;;;;;;;23.25;19.65;;;;;;;1.62;100.00;97956.50;1221595;75;2931750;-63
2024/03/08 07:46:13;;;;;;;21.60;18.85;;;;;;;1.76;100.00;97955.53;1222770;75;2932767;-63
2024/03/08 07:48:46;;;;;;;19.90;17.40;;;;;;;1.91;100.00;97962.25;1223009;75;2938008;-63
2024/03/08 07:51:20;;;;;;;19.25;16.60;;;;;;;1.94;100.00;97966.06;1222142;75;2941023;-64
2024/03/08 07:53:53;;;;;;;23.90;19.50;;;;;;;1.83;100.00;97964.28;1223105;75;2929758;-62
2024/03/08 07:56:26;;;;;;;22.05;19.05;;;;;;;1.75;100.00;97952.06;1221457;75;2939938;-62
2024/03/08 07:58:59;;;;;;;24.65;20.40;;;;;;;1.90;100.00;97958.00;1223800;75;2924351;-61
2024/03/08 08:01:34;;;;;;;20.85;18.15;;;;;;;1.90;100.00;97956.09;1223081;75;2931936;-62
2024/03/08 08:04:11;;;;;;;20.75;18.55;;;;;;;1.99;100.00;97952.09;1223030;75;2929540;-65
2024/03/08 08:06:44;;;;;;;18.45;16.50;;;;;;;2.13;100.00;97959.97;1221866;75;2933113;-63
2024/03/08 08:09:28;;;;;;;22.10;18.70;;;;;;;1.84;100.00;97956.94;1223268;75;2927674;-64
2024/03/08 08:12:01;;;;;;;21.20;18.60;;;;;;;2.04;100.00;97959.72;1223687;75;2932848;-65
2024/03/08 08:14:34;;;;;;;20.50;18.10;;;;;;;2.07;100.00;97962.38;1221602;75;2925748;-63
2024/03/08 08:17:10;;;;;;;21.35;18.90;;;;;;;2.04;100.00;97959.72;1220979;75;2930217;-62
2024/03/08 08:19:44;;;;;;;20.65;18.30;;;;;;;2.13;100.00;97960.72;1223902;75;2928569;-63
2024/03/08 08:22:18;;;;;;;20.15;18.00;;;;;;;2.34;100.00;97956.91;1223033;75;2934270;-64
2024/03/08 08:24:52;;;;;;;17.70;15.80;;;;;;;2.48;100.00;97960.53;1223418;75;2931244;-63
2024/03/08 08:27:26;;;;;;;17.30;14.60;;;;;;;2.69;100.00;97954.72;1221467;75;2931837;-63
2024/03/08 08:29:58;;;;;;;18.55;15.20;;;;;;;2.63;100.00;97959.09;1222269;75;2920020;-63
2024/03/08 08:32:34;;;;;;;20.80;18.60;;;;;;;2.29;100.00;97957.38;1223103;75;2936586;-62
2024/03/08 08:35:09;;;;;;;21.15;17.95;;;;;;;2.57;100.00;97960.72;1221099;75;2924392;-63
2024/03/08 08:37:44;;;;;;;18.65;16.65;;;;;;;2.70;100.00;97958.94;1221309;67;2937042;-64
2024/03/08 08:40:19;;;;;;;20.10;17.25;;;;;;;2.64;100.00;97960.59;1222857;75;2927904;-64
2024/03/08 08:42:52;;;;;;;19.40;17.40;;;;;;;2.74;100.00;97959.66;1188220;75;5547868;-62
2024/03/08 08:45:25;;;;;;;21.60;18.70;;;;;;;2.74;100.00;97956.16;1221032;75;2932431;-64
2024/03/08 08:48:02;;;;;;;23.35;19.55;;;;;;;2.71;100.00;97957.75;1223922;75;2925056;-64
2024/03/08 08:50:35;;;;;;;22.45;19.30;;;;;;;2.86;100.00;97954.78;1223178;75;2930287;-63
2024/03/08 08:53:09;;;;;;;25.55;20.85;;;;;;;2.71;100.00;97951.59;1223019;75;2923342;-66
2024/03/08 08:55:43;;;;;;;21.60;19.25;;;;;;;2.98;100.00;97957.66;1222888;75;2931163;-62
2024/03/08 08:58:18;;;;;;;21.80;19.35;;;;;;;3.07;100.00;97950.91;1223552;75;2955391;-63
2024/03/08 09:00:52;;;;;;;22.55;19.10;;;;;;;2.85;100.00;97951.31;1224365;75;2917435;-64
2024/03/08 09:03:28;;;;;;;19.00;16.35;;;;;;;3.04;100.00;97946.34;1223243;83;2923455;-64
2024/03/08 09:06:00;;;;;;;21.80;18.55;;;;;;;3.01;100.00;97947.16;1223942;75;2921762;-66
2024/03/08 09:08:35;;;;;;;17.05;15.00;;;;;;;3.37;100.00;97941.78;1222898;75;2924812;-63
2024/03/08 09:11:08;;;;;;;18.50;16.50;;;;;;;3.18;100.00;97948.75;1223212;75;2930660;-63
2024/03/08 09:13:41;;;;;;;22.35;17.70;;;;;;;3.01;100.00;97950.63;1223966;75;2922233;-64
2024/03/08 09:16:14;;;;;;;19.25;17.10;;;;;;;3.21;100.00;97953.31;1223326;75;2926319;-65
2024/03/08 09:18:50;;;;;;;18.00;16.10;;;;;;;3.45;100.00;97950.50;1224254;75;2927701;-63
2024/03/08 09:21:24;;;;;;;16.80;15.00;;;;;;;3.76;100.00;97945.53;1222983;75;2920515;-62
2024/03/08 09:23:58;;;;;;;17.15;14.95;;;;;;;3.73;100.00;97935.53;1223942;75;2921533;-61
2024/03/08 09:26:32;;;;;;;16.15;14.30;;;;;;;3.94;100.00;97940.44;1224023;75;2945714;-62
2024/03/08 09:29:06;;;;;;;15.65;14.05;;;;;;;4.09;100.00;97938.19;1223771;75;2922782;-63
2024/03/08 09:31:40;;;;;;;16.95;15.15;;;;;;;4.10;100.00;97938.94;1223682;75;2919640;-64
2024/03/08 09:34:16;;;;;;;14.15;12.75;;;;;;;4.37;100.00;97935.91;1223550;75;2929678;-66
2024/03/08 09:36:48;;;;;;;19.60;17.05;;;;;;;3.81;100.00;97934.97;1220643;75;2953821;-64
2024/03/08 09:39:21;;;;;;;18.80;16.55;;;;;;;4.08;100.00;97944.00;1223996;75;2921761;-63
2024/03/08 09:41:55;;;;;;;19.80;15.05;;;;;;;4.28;100.00;97941.94;1223346;75;2927496;-62
2024/03/08 09:44:28;;;;;;;17.50;15.50;;;;;;;4.32;100.00;97941.84;1223384;75;2925246;-64
2024/03/08 09:47:03;;;;;;;17.70;15.40;;;;;;;4.57;100.00;97930.34;1224746;75;2918289;-62
2024/03/08 09:49:38;;;;;;;17.10;15.20;;;;;;;4.96;100.00;97932.00;1222166;75;2927680;-63
2024/03/08 09:52:12;;;;;;;17.95;14.95;;;;;;;4.82;100.00;97933.16;1223727;75;2915301;-60
2024/03/08 09:54:46;;;;;;;18.05;14.95;;;;;;;4.91;100.00;97937.97;1222618;75;2962640;-67
2024/03/08 09:57:19;;;;;;;15.65;13.15;;;;;;;5.10;100.00;97928.88;1224716;75;2929371;-63
2024/03/08 09:59:52;;;;;;;15.00;13.40;;;;;;;5.30;100.00;97925.22;1223429;75;2920392;-62
2024/03/08 10:02:25;;;;;;;17.25;14.25;;;;;;;5.18;100.00;97932.16;1221639;75;2930024;-62
2024/03/08 10:05:03;;;;;;;17.60;14.00;;;;;;;5.40;100.00;97931.53;1214859;75;3188096;-64
2024/03/08 10:07:36;;;;;;;16.70;13.50;;;;;;;5.56;100.00;97920.56;1223456;75;2922895;-65
2024/03/08 10:10:13;;;;;;;16.10;12.50;;;;;;;5.51;100.00;97927.28;1223844;75;2930835;-66
2024/03/08 10:12:46;;;;;;;14.90;12.30;;;;;;;5.65;100.00;97930.75;1222196;75;2954153;-67
2024/03/08 10:15:20;;;;;;;17.30;13.65;;;;;;;5.59;100.00;97925.13;1223732;75;2921716;-64
2024/03/08 10:17:53;;;;;;;15.75;12.65;;;;;;;6.26;96.88;97924.16;1223847;75;2925538;-66
2024/03/08 10:20:29;;;;;;;17.50;13.00;;;;;;;5.72;94.34;97925.09;1223460;75;2922448;-63
2024/03/08 10:23:04;;;;;;;15.40;12.35;;;;;;;6.18;98.09;97923.66;1223402;75;2922134;-66
2024/03/08 10:25:38;;;;;;;17.25;12.95;;;;;;;6.27;90.64;97927.63;1224082;75;2921170;-64
2024/03/08 10:28:12;;;;;;;14.80;11.85;;;;;;;7.55;88.59;97924.97;1224150;75;2928840;-64
2024/03/08 10:30:51;;;;;;;15.85;12.75;;;;;;;7.79;85.42;97921.69;1221826;75;2919435;-63
2024/03/08 10:33:25;;;;;;;14.70;11.60;;;;;;;7.92;82.95;97922.34;1221845;75;2924936;-65
2024/03/08 10:36:00;;;;;;;17.90;12.25;;;;;;;7.01;79.00;97931.66;1224032;75;2897518;-62
2024/03/08 10:38:50;;;;;;;16.60;12.30;;;;;;;6.84;81.92;97925.66;1219612;75;2933571;-64
2024/03/08 10:41:26;;;;;;;15.15;11.40;;;;;;;6.66;82.53;97926.28;1220814;75;2917499;-64
2024/03/08 10:44:28;;;;;;;14.70;11.30;;;;;;;6.56;76.85;97924.69;1224095;75;2920501;-64
2024/03/08 10:47:16;;;;;;;14.40;11.10;;;;;;;6.63;79.21;97920.97;1223133;75;2855574;-64
2024/03/08 10:49:57;;;;;;;15.40;12.00;;;;;;;6.83;80.86;97916.75;1224376;75;2921543;-64
2024/03/08 10:52:34;;;;;;;13.25;10.50;;;;;;;7.38;76.93;97912.78;1222947;75;2931328;-66
2024/03/08 10:55:12;;;;;;;15.55;11.25;;;;;;;6.99;79.23;97915.75;1222940;75;2929385;-63
2024/03/08 10:57:46;;;;;;;16.90;12.75;;;;;;;7.25;74.12;97915.59;1222559;75;2939928;-64
2024/03/08 11:00:25;;;;;;;14.95;11.45;;;;;;;9.17;75.20;97910.84;1224236;75;2922695;-66
2024/03/08 11:03:00;;;;;;;12.60;9.35;;;;;;;9.71;68.12;97900.13;1223231;75;2926442;-65
2024/03/08 11:05:41;;;;;;;14.50;10.65;;;;;;;8.20;68.50;97906.81;1223454;75;2935953;-65
2024/03/08 11:08:26;;;;;;;12.70;10.00;;;;;;;8.79;69.06;97897.72;1222330;75;2921506;-65
2024/03/08 11:10:59;;;;;;;12.85;9.85;;;;;;;8.12;71.25;97902.84;1222946;75;2927926;-64
2024/03/08 11:13:40;;;;;;;11.95;9.60;;;;;;;8.45;69.00;97894.88;1224757;75;2923503;-64
2024/03/08 11:16:16;;;;;;;10.90;8.40;;;;;;;8.75;68.69;97900.59;1223779;75;2915476;-65
2024/03/08 11:18:57;;;;;;;9.95;7.90;;;;;;;9.00;66.69;97894.03;1224465;75;2930802;-65
2024/03/08 11:21:31;;;;;;;9.60;7.90;;;;;;;8.19;66.16;97891.63;1223798;75;2919850;-64
2024/03/08 11:24:11;;;;;;;10.35;7.40;;;;;;;8.52;64.43;97885.63;1224088;75;2918340;-63
2024/03/08 11:26:44;;;;;;;10.35;7.95;;;;;;;8.00;68.31;97887.38;1223924;75;2920991;-64
2024/03/08 11:29:42;;;;;;;10.90;8.50;;;;;;;7.88;68.48;97876.16;1221822;75;2942139;-63
2024/03/08 11:32:18;;;;;;;10.35;8.40;;;;;;;8.78;67.45;97875.13;1223337;75;2924626;-65
2024/03/08 11:34:52;;;;;;;10.85;8.20;;;;;;;9.13;66.37;97880.19;1223200;67;2921400;-65
2024/03/08 11:37:26;;;;;;;10.45;7.65;;;;;;;8.32;65.78;97875.91;1221476;75;2932838;-66
2024/03/08 11:40:04;;;;;;;9.75;7.90;;;;;;;9.15;64.45;97864.84;1224208;75;2922693;-63
2024/03/08 11:42:41;;;;;;;8.90;7.10;;;;;;;9.98;62.72;97863.66;1223273;75;2921000;-64
2024/03/08 11:45:14;;;;;;;10.75;8.10;;;;;;;10.02;61.34;97851.31;1223713;75;2926770;-66
2024/03/08 11:47:47;;;;;;;8.65;6.90;;;;;;;10.20;62.86;97846.97;1224401;75;2920453;-63